sensor_id;sensor_type;location;lat;lon;timestamp;temperature;humidity
2407;DHT22;37709;53.480;9.688;2024-01-11T00:01:00;-3.90;99.90
2407;DHT22;37709;53.480;9.688;2024-01-11T00:03:29;-3.90;99.90
2407;DHT22;37709;53.480;9.688;2024-01-11T00:05:56;-3.90;99.90
2407;DHT22;37709;53.480;9.688;2024-01-11T00:08:24;-3.90;99.90
2407;DHT22;37709;53.480;9.688;2024-01-11T00:10:54;-3.80;99.90
2407;DHT22;37709;53.480;9.688;2024-01-11T00:13:23;-3.80;99.90
2407;DHT22;37709;53.480;9.688;2024-01-11T00:15:52;-3.80;99.90
2407;DHT22;37709;53.480;9.688;2024-01-11T00:18:20;-3.80;99.90
2407;DHT22;37709;53.480;9.688;2024-01-11T00:20:47;-3.80;99.90
2407;DHT22;37709;53.480;9.688;2024-01-11T00:23:15;-3.80;99.90
2407;DHT22;37709;53.480;9.688;2024-01-11T00:25:42;-3.70;99.90
2407;DHT22;37709;53.480;9.688;2024-01-11T00:28:10;-3.70;99.90
2407;DHT22;37709;53.480;9.688;2024-01-11T00:30:39;-3.70;99.90
2407;DHT22;37709;53.480;9.688;2024-01-11T00:33:07;-3.70;99.90
2407;DHT22;37709;53.480;9.688;2024-01-11T00:35:36;-3.70;99.90
2407;DHT22;37709;53.480;9.688;2024-01-11T00:38:04;-3.70;99.90
2407;DHT22;37709;53.480;9.688;2024-01-11T00:40:31;-3.70;99.90
2407;DHT22;37709;53.480;9.688;2024-01-11T00:42:58;-3.70;99.90
2407;DHT22;37709;53.480;9.688;2024-01-11T00:45:25;-3.70;99.90
2407;DHT22;37709;53.480;9.688;2024-01-11T00:47:53;-3.60;99.90
2407;DHT22;37709;53.480;9.688;2024-01-11T00:50:20;-3.60;99.90
2407;DHT22;37709;53.480;9.688;2024-01-11T00:52:51;-3.60;99.90
2407;DHT22;37709;53.480;9.688;2024-01-11T00:55:18;-3.60;99.90
2407;DHT22;37709;53.480;9.688;2024-01-11T00:57:46;-3.60;99.90
2407;DHT22;37709;53.480;9.688;2024-01-11T01:00:14;-3.60;99.90
2407;DHT22;37709;53.480;9.688;2024-01-11T01:02:42;-3.60;99.90
2407;DHT22;37709;53.480;9.688;2024-01-11T01:05:09;-3.60;99.90
2407;DHT22;37709;53.480;9.688;2024-01-11T01:07:38;-3.60;99.90
2407;DHT22;37709;53.480;9.688;2024-01-11T01:10:06;-3.60;99.90
2407;DHT22;37709;53.480;9.688;2024-01-11T01:12:34;-3.60;99.90
2407;DHT22;37709;53.480;9.688;2024-01-11T01:15:02;-3.60;99.90
2407;DHT22;37709;53.480;9.688;2024-01-11T01:17:31;-3.50;99.90
2407;DHT22;37709;53.480;9.688;2024-01-11T01:20:00;-3.50;99.90
2407;DHT22;37709;53.480;9.688;2024-01-11T01:22:28;-3.50;99.90
2407;DHT22;37709;53.480;9.688;2024-01-11T01:24:55;-3.50;99.90
2407;DHT22;37709;53.480;9.688;2024-01-11T01:27:22;-3.50;99.90
2407;DHT22;37709;53.480;9.688;2024-01-11T01:30:16;-3.50;99.90
2407;DHT22;37709;53.480;9.688;2024-01-11T01:32:45;-3.50;99.90
2407;DHT22;37709;53.480;9.688;2024-01-11T01:35:13;-3.50;99.90
2407;DHT22;37709;53.480;9.688;2024-01-11T01:37:41;-3.50;99.90
2407;DHT22;37709;53.480;9.688;2024-01-11T01:40:08;-3.50;99.90
2407;DHT22;37709;53.480;9.688;2024-01-11T01:42:36;-3.50;99.90
2407;DHT22;37709;53.480;9.688;2024-01-11T01:45:08;-3.50;99.90
2407;DHT22;37709;53.480;9.688;2024-01-11T01:47:40;-3.50;99.90
2407;DHT22;37709;53.480;9.688;2024-01-11T01:50:10;-3.50;99.90
2407;DHT22;37709;53.480;9.688;2024-01-11T01:52:40;-3.50;99.90
2407;DHT22;37709;53.480;9.688;2024-01-11T01:55:10;-3.50;99.90
2407;DHT22;37709;53.480;9.688;2024-01-11T01:57:40;-3.50;99.90
2407;DHT22;37709;53.480;9.688;2024-01-11T02:00:10;-3.50;99.90
2407;DHT22;37709;53.480;9.688;2024-01-11T02:02:46;-3.50;99.90
2407;DHT22;37709;53.480;9.688;2024-01-11T02:05:18;-3.50;99.90
2407;DHT22;37709;53.480;9.688;2024-01-11T02:07:46;-3.50;99.90
2407;DHT22;37709;53.480;9.688;2024-01-11T02:10:14;-3.50;99.90
2407;DHT22;37709;53.480;9.688;2024-01-11T02:12:43;-3.50;99.90
2407;DHT22;37709;53.480;9.688;2024-01-11T02:15:10;-3.50;99.90
2407;DHT22;37709;53.480;9.688;2024-01-11T02:17:40;-3.50;99.90
2407;DHT22;37709;53.480;9.688;2024-01-11T02:20:10;-3.50;99.90
2407;DHT22;37709;53.480;9.688;2024-01-11T02:22:42;-3.50;99.90
2407;DHT22;37709;53.480;9.688;2024-01-11T02:25:10;-3.50;99.90
2407;DHT22;37709;53.480;9.688;2024-01-11T02:27:48;-3.50;99.90
2407;DHT22;37709;53.480;9.688;2024-01-11T02:30:17;-3.50;99.90
2407;DHT22;37709;53.480;9.688;2024-01-11T02:32:48;-3.50;99.90
2407;DHT22;37709;53.480;9.688;2024-01-11T02:35:16;-3.50;99.90
2407;DHT22;37709;53.480;9.688;2024-01-11T02:37:45;-3.50;99.90
2407;DHT22;37709;53.480;9.688;2024-01-11T02:40:14;-3.50;99.90
2407;DHT22;37709;53.480;9.688;2024-01-11T02:42:45;-3.40;99.90
2407;DHT22;37709;53.480;9.688;2024-01-11T02:45:12;-3.40;99.90
2407;DHT22;37709;53.480;9.688;2024-01-11T02:47:40;-3.40;99.90
2407;DHT22;37709;53.480;9.688;2024-01-11T02:50:09;-3.40;99.90
2407;DHT22;37709;53.480;9.688;2024-01-11T02:52:36;-3.40;99.90
2407;DHT22;37709;53.480;9.688;2024-01-11T02:55:06;-3.40;99.90
2407;DHT22;37709;53.480;9.688;2024-01-11T02:57:33;-3.40;99.90
2407;DHT22;37709;53.480;9.688;2024-01-11T03:00:01;-3.30;99.90
2407;DHT22;37709;53.480;9.688;2024-01-11T03:02:30;-3.30;99.90
2407;DHT22;37709;53.480;9.688;2024-01-11T03:04:58;-3.30;99.90
2407;DHT22;37709;53.480;9.688;2024-01-11T03:07:25;-3.30;99.90
2407;DHT22;37709;53.480;9.688;2024-01-11T03:09:56;-3.30;99.90
2407;DHT22;37709;53.480;9.688;2024-01-11T03:12:24;-3.20;99.90
2407;DHT22;37709;53.480;9.688;2024-01-11T03:14:54;-3.20;99.90
2407;DHT22;37709;53.480;9.688;2024-01-11T03:17:22;-3.20;99.90
2407;DHT22;37709;53.480;9.688;2024-01-11T03:19:51;-3.20;99.90
2407;DHT22;37709;53.480;9.688;2024-01-11T03:22:21;-3.20;99.90
2407;DHT22;37709;53.480;9.688;2024-01-11T03:24:48;-3.20;99.90
2407;DHT22;37709;53.480;9.688;2024-01-11T03:27:17;-3.10;99.90
2407;DHT22;37709;53.480;9.688;2024-01-11T03:29:45;-3.10;99.90
2407;DHT22;37709;53.480;9.688;2024-01-11T03:32:14;-3.10;99.90
2407;DHT22;37709;53.480;9.688;2024-01-11T03:34:42;-3.10;99.90
2407;DHT22;37709;53.480;9.688;2024-01-11T03:37:10;-3.10;99.90
2407;DHT22;37709;53.480;9.688;2024-01-11T03:39:38;-3.10;99.90
2407;DHT22;37709;53.480;9.688;2024-01-11T03:42:08;-3.00;99.90
2407;DHT22;37709;53.480;9.688;2024-01-11T03:44:36;-3.00;99.90
2407;DHT22;37709;53.480;9.688;2024-01-11T03:47:04;-3.00;99.90
2407;DHT22;37709;53.480;9.688;2024-01-11T03:49:34;-3.00;99.90
2407;DHT22;37709;53.480;9.688;2024-01-11T03:52:03;-3.00;99.90
2407;DHT22;37709;53.480;9.688;2024-01-11T03:54:30;-3.00;99.90
2407;DHT22;37709;53.480;9.688;2024-01-11T03:57:01;-3.00;99.90
2407;DHT22;37709;53.480;9.688;2024-01-11T03:59:29;-3.00;99.90
2407;DHT22;37709;53.480;9.688;2024-01-11T04:01:58;-3.00;99.90
2407;DHT22;37709;53.480;9.688;2024-01-11T04:04:28;-3.00;99.90
2407;DHT22;37709;53.480;9.688;2024-01-11T04:06:56;-2.90;99.90
2407;DHT22;37709;53.480;9.688;2024-01-11T04:09:23;-2.90;99.90
2407;DHT22;37709;53.480;9.688;2024-01-11T04:11:50;-2.90;99.90
2407;DHT22;37709;53.480;9.688;2024-01-11T04:14:17;-2.80;99.90
2407;DHT22;37709;53.480;9.688;2024-01-11T04:16:45;-2.80;99.90
2407;DHT22;37709;53.480;9.688;2024-01-11T04:19:13;-2.80;99.90
2407;DHT22;37709;53.480;9.688;2024-01-11T04:21:41;-2.80;99.90
2407;DHT22;37709;53.480;9.688;2024-01-11T04:24:08;-2.70;99.90
2407;DHT22;37709;53.480;9.688;2024-01-11T04:26:35;-2.70;99.90
2407;DHT22;37709;53.480;9.688;2024-01-11T04:29:03;-2.70;99.90
2407;DHT22;37709;53.480;9.688;2024-01-11T04:31:32;-2.70;99.90
2407;DHT22;37709;53.480;9.688;2024-01-11T04:34:01;-2.60;99.90
2407;DHT22;37709;53.480;9.688;2024-01-11T04:36:30;-2.60;99.90
2407;DHT22;37709;53.480;9.688;2024-01-11T04:38:58;-2.60;99.90
2407;DHT22;37709;53.480;9.688;2024-01-11T04:41:25;-2.60;99.90
2407;DHT22;37709;53.480;9.688;2024-01-11T04:43:53;-2.60;99.90
2407;DHT22;37709;53.480;9.688;2024-01-11T04:46:22;-2.50;99.90
2407;DHT22;37709;53.480;9.688;2024-01-11T04:48:50;-2.50;99.90
2407;DHT22;37709;53.480;9.688;2024-01-11T04:51:18;-2.50;99.90
2407;DHT22;37709;53.480;9.688;2024-01-11T04:53:48;-2.40;99.90
2407;DHT22;37709;53.480;9.688;2024-01-11T04:56:16;-2.40;99.90
2407;DHT22;37709;53.480;9.688;2024-01-11T04:58:45;-2.30;99.90
2407;DHT22;37709;53.480;9.688;2024-01-11T05:01:14;-2.30;99.90
2407;DHT22;37709;53.480;9.688;2024-01-11T05:03:46;-2.30;99.90
2407;DHT22;37709;53.480;9.688;2024-01-11T05:06:19;-2.30;99.90
2407;DHT22;37709;53.480;9.688;2024-01-11T05:08:50;-2.30;99.90
2407;DHT22;37709;53.480;9.688;2024-01-11T05:11:22;-2.20;99.90
2407;DHT22;37709;53.480;9.688;2024-01-11T05:13:51;-2.30;99.90
2407;DHT22;37709;53.480;9.688;2024-01-11T05:16:27;-2.20;99.90
2407;DHT22;37709;53.480;9.688;2024-01-11T05:18:56;-2.20;99.90
2407;DHT22;37709;53.480;9.688;2024-01-11T05:21:26;-2.20;99.90
2407;DHT22;37709;53.480;9.688;2024-01-11T05:23:54;-2.20;99.90
2407;DHT22;37709;53.480;9.688;2024-01-11T05:26:22;-2.20;99.90
2407;DHT22;37709;53.480;9.688;2024-01-11T05:28:49;-2.10;99.90
2407;DHT22;37709;53.480;9.688;2024-01-11T05:31:18;-2.10;99.90
2407;DHT22;37709;53.480;9.688;2024-01-11T05:33:48;-2.00;99.90
2407;DHT22;37709;53.480;9.688;2024-01-11T05:36:16;-1.90;99.90
2407;DHT22;37709;53.480;9.688;2024-01-11T05:38:45;-1.90;99.90
2407;DHT22;37709;53.480;9.688;2024-01-11T05:41:13;-1.90;99.90
2407;DHT22;37709;53.480;9.688;2024-01-11T05:43:42;-1.90;99.90
2407;DHT22;37709;53.480;9.688;2024-01-11T05:46:13;-1.80;99.90
2407;DHT22;37709;53.480;9.688;2024-01-11T05:48:43;-1.80;99.90
2407;DHT22;37709;53.480;9.688;2024-01-11T05:51:10;-1.70;99.90
2407;DHT22;37709;53.480;9.688;2024-01-11T05:53:38;-1.70;99.90
2407;DHT22;37709;53.480;9.688;2024-01-11T05:56:10;-1.70;99.90
2407;DHT22;37709;53.480;9.688;2024-01-11T05:58:40;-1.70;99.90
2407;DHT22;37709;53.480;9.688;2024-01-11T06:01:07;-1.60;99.90
2407;DHT22;37709;53.480;9.688;2024-01-11T06:03:35;-1.60;99.90
2407;DHT22;37709;53.480;9.688;2024-01-11T06:06:04;-1.60;99.90
2407;DHT22;37709;53.480;9.688;2024-01-11T06:08:32;-1.60;99.90
2407;DHT22;37709;53.480;9.688;2024-01-11T06:11:00;-1.60;99.90
2407;DHT22;37709;53.480;9.688;2024-01-11T06:13:27;-1.60;99.90
2407;DHT22;37709;53.480;9.688;2024-01-11T06:15:54;-1.60;99.90
2407;DHT22;37709;53.480;9.688;2024-01-11T06:18:23;-1.60;99.90
2407;DHT22;37709;53.480;9.688;2024-01-11T06:20:51;-1.60;99.90
2407;DHT22;37709;53.480;9.688;2024-01-11T06:23:24;-1.60;99.90
2407;DHT22;37709;53.480;9.688;2024-01-11T06:25:56;-1.60;99.90
2407;DHT22;37709;53.480;9.688;2024-01-11T06:28:24;-1.60;99.90
2407;DHT22;37709;53.480;9.688;2024-01-11T06:30:52;-1.60;99.90
2407;DHT22;37709;53.480;9.688;2024-01-11T06:33:21;-1.60;99.90
2407;DHT22;37709;53.480;9.688;2024-01-11T06:35:50;-1.60;99.90
2407;DHT22;37709;53.480;9.688;2024-01-11T06:38:18;-1.70;99.90
2407;DHT22;37709;53.480;9.688;2024-01-11T06:40:46;-1.70;99.90
2407;DHT22;37709;53.480;9.688;2024-01-11T06:43:13;-1.70;99.90
2407;DHT22;37709;53.480;9.688;2024-01-11T06:45:42;-1.70;99.90
2407;DHT22;37709;53.480;9.688;2024-01-11T06:48:10;-1.70;99.90
2407;DHT22;37709;53.480;9.688;2024-01-11T06:50:40;-1.70;99.90
2407;DHT22;37709;53.480;9.688;2024-01-11T06:53:07;-1.70;99.90
2407;DHT22;37709;53.480;9.688;2024-01-11T06:55:35;-1.70;99.90
2407;DHT22;37709;53.480;9.688;2024-01-11T06:58:02;-1.70;99.90
2407;DHT22;37709;53.480;9.688;2024-01-11T07:00:33;-1.70;99.90
2407;DHT22;37709;53.480;9.688;2024-01-11T07:03:01;-1.70;99.90
2407;DHT22;37709;53.480;9.688;2024-01-11T07:05:32;-1.70;99.90
2407;DHT22;37709;53.480;9.688;2024-01-11T07:07:59;-1.70;99.90
2407;DHT22;37709;53.480;9.688;2024-01-11T07:10:27;-1.70;99.90
2407;DHT22;37709;53.480;9.688;2024-01-11T07:12:56;-1.70;99.90
2407;DHT22;37709;53.480;9.688;2024-01-11T07:15:24;-1.70;99.90
2407;DHT22;37709;53.480;9.688;2024-01-11T07:17:52;-1.70;99.90
2407;DHT22;37709;53.480;9.688;2024-01-11T07:20:20;-1.70;99.90
2407;DHT22;37709;53.480;9.688;2024-01-11T07:22:48;-1.70;99.90
2407;DHT22;37709;53.480;9.688;2024-01-11T07:25:16;-1.70;99.90
2407;DHT22;37709;53.480;9.688;2024-01-11T07:27:44;-1.70;99.90
2407;DHT22;37709;53.480;9.688;2024-01-11T07:30:12;-1.60;99.90
2407;DHT22;37709;53.480;9.688;2024-01-11T07:32:40;-1.60;99.90
2407;DHT22;37709;53.480;9.688;2024-01-11T07:35:09;-1.60;99.90
2407;DHT22;37709;53.480;9.688;2024-01-11T07:37:44;-1.60;99.90
2407;DHT22;37709;53.480;9.688;2024-01-11T07:40:11;-1.60;99.90
2407;DHT22;37709;53.480;9.688;2024-01-11T07:42:41;-1.60;99.90
2407;DHT22;37709;53.480;9.688;2024-01-11T07:45:10;-1.60;99.90
2407;DHT22;37709;53.480;9.688;2024-01-11T07:47:38;-1.60;99.90
2407;DHT22;37709;53.480;9.688;2024-01-11T07:50:07;-1.50;99.90
2407;DHT22;37709;53.480;9.688;2024-01-11T07:52:38;-1.50;99.90
2407;DHT22;37709;53.480;9.688;2024-01-11T07:55:09;-1.50;99.90
2407;DHT22;37709;53.480;9.688;2024-01-11T07:57:38;-1.50;99.90
2407;DHT22;37709;53.480;9.688;2024-01-11T08:00:08;-1.50;99.90
2407;DHT22;37709;53.480;9.688;2024-01-11T08:02:39;-1.40;99.90
2407;DHT22;37709;53.480;9.688;2024-01-11T08:05:09;-1.40;99.90
2407;DHT22;37709;53.480;9.688;2024-01-11T08:07:38;-1.40;99.90
2407;DHT22;37709;53.480;9.688;2024-01-11T08:10:08;-1.40;99.90
2407;DHT22;37709;53.480;9.688;2024-01-11T08:12:37;-1.30;99.90
2407;DHT22;37709;53.480;9.688;2024-01-11T08:15:08;-1.30;99.90
2407;DHT22;37709;53.480;9.688;2024-01-11T08:17:44;-1.30;99.90
2407;DHT22;37709;53.480;9.688;2024-01-11T08:20:14;-1.20;99.90
2407;DHT22;37709;53.480;9.688;2024-01-11T08:22:45;-1.20;99.90
2407;DHT22;37709;53.480;9.688;2024-01-11T08:25:13;-1.20;99.90
2407;DHT22;37709;53.480;9.688;2024-01-11T08:27:41;-1.10;99.90
2407;DHT22;37709;53.480;9.688;2024-01-11T08:30:10;-1.10;99.90
2407;DHT22;37709;53.480;9.688;2024-01-11T08:32:41;-1.00;99.90
2407;DHT22;37709;53.480;9.688;2024-01-11T08:35:10;-1.00;99.90
2407;DHT22;37709;53.480;9.688;2024-01-11T08:37:39;-1.00;99.90
2407;DHT22;37709;53.480;9.688;2024-01-11T08:40:10;-1.00;99.90
2407;DHT22;37709;53.480;9.688;2024-01-11T08:42:38;-1.00;99.90
2407;DHT22;37709;53.480;9.688;2024-01-11T08:45:07;-1.00;99.90
2407;DHT22;37709;53.480;9.688;2024-01-11T08:47:38;-0.90;99.90
2407;DHT22;37709;53.480;9.688;2024-01-11T08:50:06;-0.90;99.90
2407;DHT22;37709;53.480;9.688;2024-01-11T08:52:41;-0.90;99.90
2407;DHT22;37709;53.480;9.688;2024-01-11T08:55:13;-0.80;99.90
2407;DHT22;37709;53.480;9.688;2024-01-11T08:57:40;-0.80;99.90
2407;DHT22;37709;53.480;9.688;2024-01-11T09:00:10;-0.70;99.90
2407;DHT22;37709;53.480;9.688;2024-01-11T09:02:45;-0.70;99.90
2407;DHT22;37709;53.480;9.688;2024-01-11T09:05:16;-0.70;99.90
2407;DHT22;37709;53.480;9.688;2024-01-11T09:07:43;-0.60;99.90
2407;DHT22;37709;53.480;9.688;2024-01-11T09:10:12;-0.60;99.90
2407;DHT22;37709;53.480;9.688;2024-01-11T09:12:39;-0.50;99.90
2407;DHT22;37709;53.480;9.688;2024-01-11T09:15:07;-0.50;99.90
2407;DHT22;37709;53.480;9.688;2024-01-11T09:17:39;-0.50;99.90
2407;DHT22;37709;53.480;9.688;2024-01-11T09:20:11;-0.50;99.90
2407;DHT22;37709;53.480;9.688;2024-01-11T09:22:41;-0.50;99.90
2407;DHT22;37709;53.480;9.688;2024-01-11T09:25:09;-0.50;99.90
2407;DHT22;37709;53.480;9.688;2024-01-11T09:27:37;-0.50;99.90
2407;DHT22;37709;53.480;9.688;2024-01-11T09:30:05;-0.50;99.90
2407;DHT22;37709;53.480;9.688;2024-01-11T09:32:32;-0.30;99.90
2407;DHT22;37709;53.480;9.688;2024-01-11T09:35:03;-0.30;99.90
2407;DHT22;37709;53.480;9.688;2024-01-11T09:37:32;-0.30;99.90
2407;DHT22;37709;53.480;9.688;2024-01-11T09:40:01;-0.30;99.90
2407;DHT22;37709;53.480;9.688;2024-01-11T09:42:32;-0.20;99.90
2407;DHT22;37709;53.480;9.688;2024-01-11T09:45:01;-0.20;99.90
2407;DHT22;37709;53.480;9.688;2024-01-11T09:47:30;-0.20;99.90
2407;DHT22;37709;53.480;9.688;2024-01-11T09:49:59;-0.10;99.90
2407;DHT22;37709;53.480;9.688;2024-01-11T09:52:30;-0.10;99.90
2407;DHT22;37709;53.480;9.688;2024-01-11T09:55:02;-0.10;99.90
2407;DHT22;37709;53.480;9.688;2024-01-11T09:57:31;-0.20;99.90
2407;DHT22;37709;53.480;9.688;2024-01-11T10:00:04;0.00;99.90
2407;DHT22;37709;53.480;9.688;2024-01-11T10:02:36;0.00;99.90
2407;DHT22;37709;53.480;9.688;2024-01-11T10:05:05;0.00;99.90
2407;DHT22;37709;53.480;9.688;2024-01-11T10:07:32;0.00;99.90
2407;DHT22;37709;53.480;9.688;2024-01-11T10:10:02;0.10;99.90
2407;DHT22;37709;53.480;9.688;2024-01-11T10:12:31;0.20;99.90
2407;DHT22;37709;53.480;9.688;2024-01-11T10:15:05;0.10;99.90
2407;DHT22;37709;53.480;9.688;2024-01-11T10:17:33;0.20;99.90
2407;DHT22;37709;53.480;9.688;2024-01-11T10:20:01;0.20;99.90
2407;DHT22;37709;53.480;9.688;2024-01-11T10:22:32;0.30;99.90
2407;DHT22;37709;53.480;9.688;2024-01-11T10:25:11;0.40;99.90
2407;DHT22;37709;53.480;9.688;2024-01-11T10:27:42;0.40;99.90
2407;DHT22;37709;53.480;9.688;2024-01-11T10:30:15;0.50;99.90
2407;DHT22;37709;53.480;9.688;2024-01-11T10:32:44;0.60;99.90
2407;DHT22;37709;53.480;9.688;2024-01-11T10:35:17;0.60;99.90
2407;DHT22;37709;53.480;9.688;2024-01-11T10:37:50;0.70;99.90
2407;DHT22;37709;53.480;9.688;2024-01-11T10:40:20;0.60;99.90
2407;DHT22;37709;53.480;9.688;2024-01-11T10:42:52;0.70;99.90
2407;DHT22;37709;53.480;9.688;2024-01-11T10:45:45;0.80;99.90
2407;DHT22;37709;53.480;9.688;2024-01-11T10:48:15;0.80;99.90
2407;DHT22;37709;53.480;9.688;2024-01-11T10:50:45;0.90;99.90
2407;DHT22;37709;53.480;9.688;2024-01-11T10:53:41;0.90;99.90
2407;DHT22;37709;53.480;9.688;2024-01-11T10:56:13;1.00;99.90
2407;DHT22;37709;53.480;9.688;2024-01-11T10:58:43;1.00;99.90
2407;DHT22;37709;53.480;9.688;2024-01-11T11:01:12;1.00;99.90
2407;DHT22;37709;53.480;9.688;2024-01-11T11:03:41;1.00;99.90
2407;DHT22;37709;53.480;9.688;2024-01-11T11:06:11;1.00;99.90
2407;DHT22;37709;53.480;9.688;2024-01-11T11:08:40;1.10;99.90
2407;DHT22;37709;53.480;9.688;2024-01-11T11:11:08;1.10;99.90
2407;DHT22;37709;53.480;9.688;2024-01-11T11:13:38;1.20;99.90
2407;DHT22;37709;53.480;9.688;2024-01-11T11:16:07;1.20;99.90
2407;DHT22;37709;53.480;9.688;2024-01-11T11:18:37;1.20;99.90
2407;DHT22;37709;53.480;9.688;2024-01-11T11:21:09;1.10;99.90
2407;DHT22;37709;53.480;9.688;2024-01-11T11:23:42;1.20;99.90
2407;DHT22;37709;53.480;9.688;2024-01-11T11:26:14;1.20;99.90
2407;DHT22;37709;53.480;9.688;2024-01-11T11:28:44;1.20;99.90
2407;DHT22;37709;53.480;9.688;2024-01-11T11:31:12;1.20;99.90
2407;DHT22;37709;53.480;9.688;2024-01-11T11:33:44;1.20;99.90
2407;DHT22;37709;53.480;9.688;2024-01-11T11:36:17;1.10;99.90
2407;DHT22;37709;53.480;9.688;2024-01-11T11:38:45;1.10;99.90
2407;DHT22;37709;53.480;9.688;2024-01-11T11:41:12;1.10;99.90
2407;DHT22;37709;53.480;9.688;2024-01-11T11:43:40;1.10;99.90
2407;DHT22;37709;53.480;9.688;2024-01-11T11:46:09;1.20;99.90
2407;DHT22;37709;53.480;9.688;2024-01-11T11:51:10;1.10;99.90
2407;DHT22;37709;53.480;9.688;2024-01-11T11:53:38;1.10;99.90
2407;DHT22;37709;53.480;9.688;2024-01-11T11:56:07;1.10;99.90
2407;DHT22;37709;53.480;9.688;2024-01-11T11:58:37;1.10;99.90
2407;DHT22;37709;53.480;9.688;2024-01-11T12:01:06;1.10;99.90
2407;DHT22;37709;53.480;9.688;2024-01-11T12:03:36;1.10;99.90
2407;DHT22;37709;53.480;9.688;2024-01-11T12:06:06;1.00;99.90
2407;DHT22;37709;53.480;9.688;2024-01-11T12:08:36;1.00;99.90
2407;DHT22;37709;53.480;9.688;2024-01-11T12:11:30;1.00;99.90
2407;DHT22;37709;53.480;9.688;2024-01-11T12:13:58;1.10;99.90
2407;DHT22;37709;53.480;9.688;2024-01-11T12:16:28;1.10;99.90
2407;DHT22;37709;53.480;9.688;2024-01-11T12:18:55;1.10;99.90
2407;DHT22;37709;53.480;9.688;2024-01-11T12:21:23;1.00;99.90
2407;DHT22;37709;53.480;9.688;2024-01-11T12:23:51;1.00;99.90
2407;DHT22;37709;53.480;9.688;2024-01-11T12:26:20;1.00;99.90
2407;DHT22;37709;53.480;9.688;2024-01-11T12:28:51;1.00;99.90
2407;DHT22;37709;53.480;9.688;2024-01-11T12:31:21;1.00;99.90
2407;DHT22;37709;53.480;9.688;2024-01-11T12:33:49;1.00;99.90
2407;DHT22;37709;53.480;9.688;2024-01-11T12:36:17;1.00;99.90
2407;DHT22;37709;53.480;9.688;2024-01-11T12:38:47;1.00;99.90
2407;DHT22;37709;53.480;9.688;2024-01-11T12:41:23;1.10;99.90
2407;DHT22;37709;53.480;9.688;2024-01-11T12:43:52;1.00;99.90
2407;DHT22;37709;53.480;9.688;2024-01-11T12:46:20;1.00;99.90
2407;DHT22;37709;53.480;9.688;2024-01-11T12:48:49;1.00;99.90
2407;DHT22;37709;53.480;9.688;2024-01-11T12:51:17;1.00;99.90
2407;DHT22;37709;53.480;9.688;2024-01-11T12:53:51;1.00;99.90
2407;DHT22;37709;53.480;9.688;2024-01-11T12:56:21;1.10;99.90
2407;DHT22;37709;53.480;9.688;2024-01-11T12:58:50;1.10;99.90
2407;DHT22;37709;53.480;9.688;2024-01-11T13:01:18;1.20;99.90
2407;DHT22;37709;53.480;9.688;2024-01-11T13:03:48;1.20;99.90
2407;DHT22;37709;53.480;9.688;2024-01-11T13:06:18;1.30;99.90
2407;DHT22;37709;53.480;9.688;2024-01-11T13:08:49;1.30;99.90
2407;DHT22;37709;53.480;9.688;2024-01-11T13:11:16;1.40;99.90
2407;DHT22;37709;53.480;9.688;2024-01-11T13:13:45;1.40;99.90
2407;DHT22;37709;53.480;9.688;2024-01-11T13:16:15;1.40;99.90
2407;DHT22;37709;53.480;9.688;2024-01-11T13:18:43;1.50;99.90
2407;DHT22;37709;53.480;9.688;2024-01-11T13:21:11;1.50;99.90
2407;DHT22;37709;53.480;9.688;2024-01-11T13:23:41;1.50;99.90
2407;DHT22;37709;53.480;9.688;2024-01-11T13:26:09;1.50;99.90
2407;DHT22;37709;53.480;9.688;2024-01-11T13:28:36;1.50;99.90
2407;DHT22;37709;53.480;9.688;2024-01-11T13:31:03;1.50;99.90
2407;DHT22;37709;53.480;9.688;2024-01-11T13:33:33;1.60;99.90
2407;DHT22;37709;53.480;9.688;2024-01-11T13:36:03;1.60;99.90
2407;DHT22;37709;53.480;9.688;2024-01-11T13:38:31;1.60;99.90
2407;DHT22;37709;53.480;9.688;2024-01-11T13:40:58;1.60;99.90
2407;DHT22;37709;53.480;9.688;2024-01-11T13:43:26;1.60;99.90
2407;DHT22;37709;53.480;9.688;2024-01-11T13:45:53;1.50;99.90
2407;DHT22;37709;53.480;9.688;2024-01-11T13:48:26;1.50;99.90
2407;DHT22;37709;53.480;9.688;2024-01-11T13:50:54;1.50;99.90
2407;DHT22;37709;53.480;9.688;2024-01-11T13:53:22;1.50;99.90
2407;DHT22;37709;53.480;9.688;2024-01-11T13:55:51;1.50;99.90
2407;DHT22;37709;53.480;9.688;2024-01-11T13:58:21;1.50;99.90
2407;DHT22;37709;53.480;9.688;2024-01-11T14:00:50;1.50;99.90
2407;DHT22;37709;53.480;9.688;2024-01-11T14:03:24;1.50;99.90
2407;DHT22;37709;53.480;9.688;2024-01-11T14:05:51;1.50;99.90
2407;DHT22;37709;53.480;9.688;2024-01-11T14:08:19;1.50;99.90
2407;DHT22;37709;53.480;9.688;2024-01-11T14:10:46;1.50;99.90
2407;DHT22;37709;53.480;9.688;2024-01-11T14:13:15;1.50;99.90
2407;DHT22;37709;53.480;9.688;2024-01-11T14:15:44;1.50;99.90
2407;DHT22;37709;53.480;9.688;2024-01-11T14:18:15;1.40;99.90
2407;DHT22;37709;53.480;9.688;2024-01-11T14:20:43;1.40;99.90
2407;DHT22;37709;53.480;9.688;2024-01-11T14:23:10;1.30;99.90
2407;DHT22;37709;53.480;9.688;2024-01-11T14:25:39;1.30;99.90
2407;DHT22;37709;53.480;9.688;2024-01-11T14:28:07;1.30;99.90
2407;DHT22;37709;53.480;9.688;2024-01-11T14:30:35;1.30;99.90
2407;DHT22;37709;53.480;9.688;2024-01-11T14:33:03;1.30;99.90
2407;DHT22;37709;53.480;9.688;2024-01-11T14:35:31;1.20;99.90
2407;DHT22;37709;53.480;9.688;2024-01-11T14:38:00;1.20;99.90
2407;DHT22;37709;53.480;9.688;2024-01-11T14:40:27;1.10;99.90
2407;DHT22;37709;53.480;9.688;2024-01-11T14:42:56;1.20;99.90
2407;DHT22;37709;53.480;9.688;2024-01-11T14:45:27;1.10;99.90
2407;DHT22;37709;53.480;9.688;2024-01-11T14:47:56;1.10;99.90
2407;DHT22;37709;53.480;9.688;2024-01-11T14:50:23;1.10;99.90
2407;DHT22;37709;53.480;9.688;2024-01-11T14:52:56;1.00;99.90
2407;DHT22;37709;53.480;9.688;2024-01-11T14:55:23;1.00;99.90
2407;DHT22;37709;53.480;9.688;2024-01-11T14:57:55;1.00;99.90
2407;DHT22;37709;53.480;9.688;2024-01-11T15:00:50;0.90;99.90
2407;DHT22;37709;53.480;9.688;2024-01-11T15:03:21;0.90;99.90
2407;DHT22;37709;53.480;9.688;2024-01-11T15:05:48;0.80;99.90
2407;DHT22;37709;53.480;9.688;2024-01-11T15:08:15;0.80;99.90
2407;DHT22;37709;53.480;9.688;2024-01-11T15:10:45;0.70;99.90
2407;DHT22;37709;53.480;9.688;2024-01-11T15:13:15;0.70;99.90
2407;DHT22;37709;53.480;9.688;2024-01-11T15:15:45;0.70;99.90
2407;DHT22;37709;53.480;9.688;2024-01-11T15:18:14;0.60;99.90
2407;DHT22;37709;53.480;9.688;2024-01-11T15:20:41;0.60;99.90
2407;DHT22;37709;53.480;9.688;2024-01-11T15:23:13;0.60;99.90
2407;DHT22;37709;53.480;9.688;2024-01-11T15:25:41;0.60;99.90
2407;DHT22;37709;53.480;9.688;2024-01-11T15:28:10;0.60;99.90
2407;DHT22;37709;53.480;9.688;2024-01-11T15:30:39;0.60;99.90
2407;DHT22;37709;53.480;9.688;2024-01-11T15:33:09;0.60;99.90
2407;DHT22;37709;53.480;9.688;2024-01-11T15:35:37;0.50;99.90
2407;DHT22;37709;53.480;9.688;2024-01-11T15:38:29;0.50;99.90
2407;DHT22;37709;53.480;9.688;2024-01-11T15:40:57;0.50;99.90
2407;DHT22;37709;53.480;9.688;2024-01-11T15:43:24;0.50;99.90
2407;DHT22;37709;53.480;9.688;2024-01-11T15:45:51;0.50;99.90
2407;DHT22;37709;53.480;9.688;2024-01-11T15:48:20;0.40;99.90
2407;DHT22;37709;53.480;9.688;2024-01-11T15:50:48;0.40;99.90
2407;DHT22;37709;53.480;9.688;2024-01-11T15:53:17;0.40;99.90
2407;DHT22;37709;53.480;9.688;2024-01-11T15:55:47;0.40;99.90
2407;DHT22;37709;53.480;9.688;2024-01-11T15:58:17;0.30;99.90
2407;DHT22;37709;53.480;9.688;2024-01-11T16:00:45;0.30;99.90
2407;DHT22;37709;53.480;9.688;2024-01-11T16:03:13;0.30;99.90
2407;DHT22;37709;53.480;9.688;2024-01-11T16:05:41;0.30;99.90
2407;DHT22;37709;53.480;9.688;2024-01-11T16:08:10;0.30;99.90